This is the latest recevied weather packets stored in our database for station/object KD7DVD-1. If no packets are shown the sender has not sent any weather packets the latest 1 day(s).
| Time | Temp. | Humidity | Pressure | Rain* | Wind** | Luminosity | Snow |
|---|---|---|---|---|---|---|---|
| 1778079616 | 12.22° C | 88% | 1018.8 hPa | 0 mm | - | - | - |
| 1778074216 | 12.22° C | 87% | 1018.9 hPa | 0 mm | - | - | - |
| 1778072416 | 12.22° C | 87% | 1018.4 hPa | 0 mm | - | - | - |
| 1778070616 | 12.22° C | 87% | 1018.4 hPa | 0 mm | - | - | - |
| 1778068816 | 12.22° C | 86% | 1018.3 hPa | 0 mm | - | - | - |
| 1778058017 | 11.67° C | 90% | 1017 hPa | 0 mm | - | - | - |
| 1778056217 | 11.11° C | 90% | 1016.8 hPa | 0 mm | - | - | - |
| 1778054417 | 11.67° C | 89% | 1016.7 hPa | 0 mm | - | - | - |
| 1778052617 | 12.22° C | 88% | 1016.6 hPa | 0 mm | - | - | - |
| 1778050817 | 12.22° C | 87% | 1016.3 hPa | 0 mm | - | - | - |
| 1778045416 | 13.33° C | 85% | 1015.5 hPa | 0 mm | - | - | - |
| 1778043616 | 13.89° C | 85% | 1015.2 hPa | 0 mm | - | - | - |
| 1778041816 | 13.89° C | 84% | 1015.2 hPa | 0 mm | - | - | - |
| 1778040017 | 15° C | 82% | 1015.1 hPa | 0 mm | - | - | - |
| 1778038216 | 15.56° C | 79% | 1014.6 hPa | 0 mm | - | - | - |
| 1778034615 | 17.78° C | 72% | 1014.4 hPa | 0 mm | - | - | - |
| 1778032816 | 20.56° C | 65% | 1014.4 hPa | 0 mm | - | - | - |
| 1778029217 | 20.56° C | 63% | 1014.5 hPa | 0 mm | - | - | - |
| 1778016617 | 17.22° C | 73% | 1016 hPa | 0 mm | - | - | - |
| 1778014817 | 16.67° C | 74% | 1016 hPa | 0 mm | - | - | - |
| 1778013017 | 16.11° C | 75% | 1016.2 hPa | 0 mm | - | - | - |
| 1778011217 | 16.11° C | 76% | 1016.1 hPa | 0 mm | - | - | - |
* Rain latest hour (hover to see other rain measurements)
** Current wind speed in m/s (hover to see current wind gust speed)